sensor_id;sensor_type;location;lat;lon;timestamp;temperature;humidity
65087;DHT22;52094;51.234;-2.310;2022-09-06T00:01:27;15.20;87.00
65087;DHT22;52094;51.234;-2.310;2022-09-06T00:05:11;15.30;87.10
65087;DHT22;52094;51.234;-2.310;2022-09-06T00:08:53;15.30;87.10
65087;DHT22;52094;51.234;-2.310;2022-09-06T00:12:36;15.30;87.00
65087;DHT22;52094;51.234;-2.310;2022-09-06T00:16:21;15.30;86.90
65087;DHT22;52094;51.234;-2.310;2022-09-06T00:20:11;15.20;86.80
65087;DHT22;52094;51.234;-2.310;2022-09-06T00:23:53;15.20;86.80
65087;DHT22;52094;51.234;-2.310;2022-09-06T00:27:36;15.20;86.80
65087;DHT22;52094;51.234;-2.310;2022-09-06T00:31:21;15.20;86.90
65087;DHT22;52094;51.234;-2.310;2022-09-06T00:35:04;15.20;86.90
65087;DHT22;52094;51.234;-2.310;2022-09-06T00:38:48;15.10;86.90
65087;DHT22;52094;51.234;-2.310;2022-09-06T00:42:30;15.10;86.90
65087;DHT22;52094;51.234;-2.310;2022-09-06T00:46:22;15.10;86.90
65087;DHT22;52094;51.234;-2.310;2022-09-06T00:50:07;15.00;87.20
65087;DHT22;52094;51.234;-2.310;2022-09-06T00:53:50;15.00;87.00
65087;DHT22;52094;51.234;-2.310;2022-09-06T00:57:33;15.00;87.00
65087;DHT22;52094;51.234;-2.310;2022-09-06T01:01:15;14.90;87.10
65087;DHT22;52094;51.234;-2.310;2022-09-06T01:04:58;15.00;87.30
65087;DHT22;52094;51.234;-2.310;2022-09-06T01:08:46;15.00;87.60
65087;DHT22;52094;51.234;-2.310;2022-09-06T01:16:38;15.10;87.60
65087;DHT22;52094;51.234;-2.310;2022-09-06T01:20:36;15.10;87.80
65087;DHT22;52094;51.234;-2.310;2022-09-06T01:28:32;15.10;87.70
65087;DHT22;52094;51.234;-2.310;2022-09-06T01:36:17;15.10;88.20
65087;DHT22;52094;51.234;-2.310;2022-09-06T01:40:02;15.20;87.80
65087;DHT22;52094;51.234;-2.310;2022-09-06T01:43:47;15.20;87.80
65087;DHT22;52094;51.234;-2.310;2022-09-06T01:56:02;15.10;87.30
65087;DHT22;52094;51.234;-2.310;2022-09-06T02:03:56;15.00;87.50
65087;DHT22;52094;51.234;-2.310;2022-09-06T02:07:41;15.00;87.60
65087;DHT22;52094;51.234;-2.310;2022-09-06T02:11:26;14.90;87.50
65087;DHT22;52094;51.234;-2.310;2022-09-06T02:15:31;15.00;87.80
65087;DHT22;52094;51.234;-2.310;2022-09-06T02:19:21;14.90;87.90
65087;DHT22;52094;51.234;-2.310;2022-09-06T02:23:06;14.90;87.80
65087;DHT22;52094;51.234;-2.310;2022-09-06T02:26:49;14.90;88.60
65087;DHT22;52094;51.234;-2.310;2022-09-06T02:30:35;15.00;87.90
65087;DHT22;52094;51.234;-2.310;2022-09-06T02:34:19;14.90;87.90
65087;DHT22;52094;51.234;-2.310;2022-09-06T02:38:01;15.00;88.10
65087;DHT22;52094;51.234;-2.310;2022-09-06T02:41:45;15.00;88.10
65087;DHT22;52094;51.234;-2.310;2022-09-06T02:45:28;15.00;88.00
65087;DHT22;52094;51.234;-2.310;2022-09-06T02:49:11;15.00;88.10
65087;DHT22;52094;51.234;-2.310;2022-09-06T02:53:06;15.10;88.20
65087;DHT22;52094;51.234;-2.310;2022-09-06T02:56:50;15.10;88.50
65087;DHT22;52094;51.234;-2.310;2022-09-06T03:00:33;15.20;88.60
65087;DHT22;52094;51.234;-2.310;2022-09-06T03:04:15;15.20;88.70
65087;DHT22;52094;51.234;-2.310;2022-09-06T03:07:58;15.20;88.60
65087;DHT22;52094;51.234;-2.310;2022-09-06T03:11:43;15.20;88.60
65087;DHT22;52094;51.234;-2.310;2022-09-06T03:15:25;15.30;88.60
65087;DHT22;52094;51.234;-2.310;2022-09-06T03:19:07;15.30;88.60
65087;DHT22;52094;51.234;-2.310;2022-09-06T03:22:50;15.30;88.60
65087;DHT22;52094;51.234;-2.310;2022-09-06T03:26:32;15.40;88.60
65087;DHT22;52094;51.234;-2.310;2022-09-06T03:30:15;15.40;88.60
65087;DHT22;52094;51.234;-2.310;2022-09-06T03:33:57;15.50;88.60
65087;DHT22;52094;51.234;-2.310;2022-09-06T03:37:39;15.50;88.50
65087;DHT22;52094;51.234;-2.310;2022-09-06T03:41:21;15.50;88.40
65087;DHT22;52094;51.234;-2.310;2022-09-06T03:55:49;15.60;88.50
65087;DHT22;52094;51.234;-2.310;2022-09-06T03:59:31;15.60;88.10
65087;DHT22;52094;51.234;-2.310;2022-09-06T04:03:14;15.60;88.20
65087;DHT22;52094;51.234;-2.310;2022-09-06T04:06:56;15.60;88.40
65087;DHT22;52094;51.234;-2.310;2022-09-06T04:10:38;15.60;88.50
65087;DHT22;52094;51.234;-2.310;2022-09-06T04:14:21;15.60;88.60
65087;DHT22;52094;51.234;-2.310;2022-09-06T04:18:03;15.60;88.70
65087;DHT22;52094;51.234;-2.310;2022-09-06T04:21:49;15.70;88.70
65087;DHT22;52094;51.234;-2.310;2022-09-06T04:25:32;15.70;88.60
65087;DHT22;52094;51.234;-2.310;2022-09-06T04:29:14;15.70;88.60
65087;DHT22;52094;51.234;-2.310;2022-09-06T04:32:56;15.70;88.50
65087;DHT22;52094;51.234;-2.310;2022-09-06T04:36:39;15.70;88.30
65087;DHT22;52094;51.234;-2.310;2022-09-06T04:40:24;15.70;88.20
65087;DHT22;52094;51.234;-2.310;2022-09-06T04:44:07;15.60;88.10
65087;DHT22;52094;51.234;-2.310;2022-09-06T04:47:49;15.50;88.00
65087;DHT22;52094;51.234;-2.310;2022-09-06T04:51:32;15.50;88.20
65087;DHT22;52094;51.234;-2.310;2022-09-06T04:55:14;15.40;88.40
65087;DHT22;52094;51.234;-2.310;2022-09-06T04:58:56;15.50;88.60
65087;DHT22;52094;51.234;-2.310;2022-09-06T05:02:39;15.50;88.80
65087;DHT22;52094;51.234;-2.310;2022-09-06T05:06:22;15.50;88.80
65087;DHT22;52094;51.234;-2.310;2022-09-06T05:10:05;15.50;88.70
65087;DHT22;52094;51.234;-2.310;2022-09-06T05:13:47;15.60;88.70
65087;DHT22;52094;51.234;-2.310;2022-09-06T05:17:31;15.60;88.70
65087;DHT22;52094;51.234;-2.310;2022-09-06T05:21:13;15.60;88.80
65087;DHT22;52094;51.234;-2.310;2022-09-06T05:24:57;15.60;88.80
65087;DHT22;52094;51.234;-2.310;2022-09-06T05:28:39;15.60;88.80
65087;DHT22;52094;51.234;-2.310;2022-09-06T05:32:21;15.60;88.70
65087;DHT22;52094;51.234;-2.310;2022-09-06T05:36:04;15.60;88.70
65087;DHT22;52094;51.234;-2.310;2022-09-06T05:39:47;15.60;88.70
65087;DHT22;52094;51.234;-2.310;2022-09-06T05:43:30;15.70;88.80
65087;DHT22;52094;51.234;-2.310;2022-09-06T05:47:12;15.70;88.90
65087;DHT22;52094;51.234;-2.310;2022-09-06T05:51:11;15.70;89.10
65087;DHT22;52094;51.234;-2.310;2022-09-06T05:54:53;15.70;89.20
65087;DHT22;52094;51.234;-2.310;2022-09-06T05:58:36;15.70;89.00
65087;DHT22;52094;51.234;-2.310;2022-09-06T06:02:20;15.70;89.00
65087;DHT22;52094;51.234;-2.310;2022-09-06T06:06:02;15.70;89.10
65087;DHT22;52094;51.234;-2.310;2022-09-06T06:09:45;15.70;89.40
65087;DHT22;52094;51.234;-2.310;2022-09-06T06:13:29;15.80;89.60
65087;DHT22;52094;51.234;-2.310;2022-09-06T06:17:15;15.90;89.50
65087;DHT22;52094;51.234;-2.310;2022-09-06T06:21:19;15.90;89.50
65087;DHT22;52094;51.234;-2.310;2022-09-06T06:25:02;16.00;89.60
65087;DHT22;52094;51.234;-2.310;2022-09-06T06:28:44;16.20;89.80
65087;DHT22;52094;51.234;-2.310;2022-09-06T06:32:26;16.50;90.50
65087;DHT22;52094;51.234;-2.310;2022-09-06T06:39:54;16.70;90.40
65087;DHT22;52094;51.234;-2.310;2022-09-06T06:43:38;16.60;89.80
65087;DHT22;52094;51.234;-2.310;2022-09-06T06:47:21;16.60;89.60
65087;DHT22;52094;51.234;-2.310;2022-09-06T06:51:03;16.60;89.60
65087;DHT22;52094;51.234;-2.310;2022-09-06T06:54:45;16.70;89.80
65087;DHT22;52094;51.234;-2.310;2022-09-06T06:58:29;16.70;89.90
65087;DHT22;52094;51.234;-2.310;2022-09-06T07:02:11;16.70;89.80
65087;DHT22;52094;51.234;-2.310;2022-09-06T07:05:56;16.70;89.60
65087;DHT22;52094;51.234;-2.310;2022-09-06T07:09:54;16.70;89.50
65087;DHT22;52094;51.234;-2.310;2022-09-06T07:14:02;16.70;89.50
65087;DHT22;52094;51.234;-2.310;2022-09-06T07:17:44;16.80;89.70
65087;DHT22;52094;51.234;-2.310;2022-09-06T07:21:27;16.90;89.70
65087;DHT22;52094;51.234;-2.310;2022-09-06T07:25:17;17.00;89.60
65087;DHT22;52094;51.234;-2.310;2022-09-06T07:29:04;16.90;89.30
65087;DHT22;52094;51.234;-2.310;2022-09-06T07:32:46;16.90;89.20
65087;DHT22;52094;51.234;-2.310;2022-09-06T07:36:28;16.90;89.40
65087;DHT22;52094;51.234;-2.310;2022-09-06T07:40:11;17.00;89.40
65087;DHT22;52094;51.234;-2.310;2022-09-06T07:43:54;17.00;89.40
65087;DHT22;52094;51.234;-2.310;2022-09-06T07:47:36;17.00;89.30
65087;DHT22;52094;51.234;-2.310;2022-09-06T07:51:38;17.00;89.10
65087;DHT22;52094;51.234;-2.310;2022-09-06T07:55:20;17.10;89.30
65087;DHT22;52094;51.234;-2.310;2022-09-06T07:59:02;17.20;89.50
65087;DHT22;52094;51.234;-2.310;2022-09-06T08:02:45;17.30;89.80
65087;DHT22;52094;51.234;-2.310;2022-09-06T08:06:29;17.50;90.40
65087;DHT22;52094;51.234;-2.310;2022-09-06T08:10:12;18.60;91.60
65087;DHT22;52094;51.234;-2.310;2022-09-06T08:14:01;19.70;92.00
65087;DHT22;52094;51.234;-2.310;2022-09-06T08:17:49;19.70;89.30
65087;DHT22;52094;51.234;-2.310;2022-09-06T08:21:32;19.10;89.10
65087;DHT22;52094;51.234;-2.310;2022-09-06T08:25:14;18.80;88.30
65087;DHT22;52094;51.234;-2.310;2022-09-06T08:28:59;18.70;87.90
65087;DHT22;52094;51.234;-2.310;2022-09-06T08:32:41;18.60;87.70
65087;DHT22;52094;51.234;-2.310;2022-09-06T08:36:24;18.40;87.80
65087;DHT22;52094;51.234;-2.310;2022-09-06T08:40:11;18.40;88.10
65087;DHT22;52094;51.234;-2.310;2022-09-06T08:43:59;18.30;87.80
65087;DHT22;52094;51.234;-2.310;2022-09-06T08:48:02;18.20;87.70
65087;DHT22;52094;51.234;-2.310;2022-09-06T08:55:43;18.20;87.90
65087;DHT22;52094;51.234;-2.310;2022-09-06T08:59:35;18.20;87.70
65087;DHT22;52094;51.234;-2.310;2022-09-06T09:03:24;18.20;87.80
65087;DHT22;52094;51.234;-2.310;2022-09-06T09:07:35;18.20;87.90
65087;DHT22;52094;51.234;-2.310;2022-09-06T09:11:20;18.20;87.60
65087;DHT22;52094;51.234;-2.310;2022-09-06T09:15:05;18.30;87.90
65087;DHT22;52094;51.234;-2.310;2022-09-06T09:18:55;18.40;88.10
65087;DHT22;52094;51.234;-2.310;2022-09-06T09:22:38;18.50;88.00
65087;DHT22;52094;51.234;-2.310;2022-09-06T09:26:23;18.60;88.00
65087;DHT22;52094;51.234;-2.310;2022-09-06T09:30:08;18.60;87.60
65087;DHT22;52094;51.234;-2.310;2022-09-06T09:34:26;18.60;86.90
65087;DHT22;52094;51.234;-2.310;2022-09-06T09:38:11;18.50;86.70
65087;DHT22;52094;51.234;-2.310;2022-09-06T09:41:53;18.40;86.80
65087;DHT22;52094;51.234;-2.310;2022-09-06T09:45:35;18.50;86.90
65087;DHT22;52094;51.234;-2.310;2022-09-06T09:53:11;18.60;87.40
65087;DHT22;52094;51.234;-2.310;2022-09-06T09:56:56;18.60;87.00
65087;DHT22;52094;51.234;-2.310;2022-09-06T10:00:39;18.70;87.10
65087;DHT22;52094;51.234;-2.310;2022-09-06T10:08:30;19.10;87.80
65087;DHT22;52094;51.234;-2.310;2022-09-06T10:12:26;19.50;88.60
65087;DHT22;52094;51.234;-2.310;2022-09-06T10:16:09;19.90;88.00
65087;DHT22;52094;51.234;-2.310;2022-09-06T10:19:52;20.20;88.60
65087;DHT22;52094;51.234;-2.310;2022-09-06T10:28:13;20.70;86.20
65087;DHT22;52094;51.234;-2.310;2022-09-06T10:32:34;21.60;89.20
65087;DHT22;52094;51.234;-2.310;2022-09-06T10:36:37;21.70;82.80
65087;DHT22;52094;51.234;-2.310;2022-09-06T10:48:44;23.90;80.30
65087;DHT22;52094;51.234;-2.310;2022-09-06T10:52:33;23.80;81.20
65087;DHT22;52094;51.234;-2.310;2022-09-06T11:00:19;24.90;78.10
65087;DHT22;52094;51.234;-2.310;2022-09-06T11:04:05;25.20;79.20
65087;DHT22;52094;51.234;-2.310;2022-09-06T11:08:00;25.70;79.80
65087;DHT22;52094;51.234;-2.310;2022-09-06T11:12:21;25.80;74.20
65087;DHT22;52094;51.234;-2.310;2022-09-06T11:20:07;26.70;72.60
65087;DHT22;52094;51.234;-2.310;2022-09-06T11:23:53;27.20;70.20
65087;DHT22;52094;51.234;-2.310;2022-09-06T11:27:41;28.20;73.50
65087;DHT22;52094;51.234;-2.310;2022-09-06T11:31:31;28.60;69.00
65087;DHT22;52094;51.234;-2.310;2022-09-06T11:35:33;28.70;68.10
65087;DHT22;52094;51.234;-2.310;2022-09-06T11:43:52;28.80;58.70
65087;DHT22;52094;51.234;-2.310;2022-09-06T11:47:36;28.80;56.90
65087;DHT22;52094;51.234;-2.310;2022-09-06T11:55:18;27.80;55.50
65087;DHT22;52094;51.234;-2.310;2022-09-06T12:02:53;27.80;57.50
65087;DHT22;52094;51.234;-2.310;2022-09-06T12:07:06;28.50;60.70
65087;DHT22;52094;51.234;-2.310;2022-09-06T12:10:57;29.20;50.00
65087;DHT22;52094;51.234;-2.310;2022-09-06T12:14:41;29.20;52.30
65087;DHT22;52094;51.234;-2.310;2022-09-06T12:34:30;28.60;53.40
65087;DHT22;52094;51.234;-2.310;2022-09-06T12:38:15;28.20;52.10
65087;DHT22;52094;51.234;-2.310;2022-09-06T12:42:06;27.60;53.90
65087;DHT22;52094;51.234;-2.310;2022-09-06T12:45:52;26.70;52.50
65087;DHT22;52094;51.234;-2.310;2022-09-06T12:49:34;26.70;55.30
65087;DHT22;52094;51.234;-2.310;2022-09-06T12:53:21;26.50;55.20
65087;DHT22;52094;51.234;-2.310;2022-09-06T13:01:10;26.60;52.10
65087;DHT22;52094;51.234;-2.310;2022-09-06T13:05:02;25.50;52.20
65087;DHT22;52094;51.234;-2.310;2022-09-06T13:08:49;24.80;55.40
65087;DHT22;52094;51.234;-2.310;2022-09-06T13:12:36;24.60;56.60
65087;DHT22;52094;51.234;-2.310;2022-09-06T13:16:23;24.30;56.30
65087;DHT22;52094;51.234;-2.310;2022-09-06T13:24:26;23.60;56.00
65087;DHT22;52094;51.234;-2.310;2022-09-06T13:28:32;23.50;56.90
65087;DHT22;52094;51.234;-2.310;2022-09-06T13:32:14;23.50;57.10
65087;DHT22;52094;51.234;-2.310;2022-09-06T13:36:18;23.30;57.50
65087;DHT22;52094;51.234;-2.310;2022-09-06T13:40:01;23.20;56.30
65087;DHT22;52094;51.234;-2.310;2022-09-06T13:44:19;23.20;58.10
65087;DHT22;52094;51.234;-2.310;2022-09-06T13:48:02;23.20;55.70
65087;DHT22;52094;51.234;-2.310;2022-09-06T13:52:04;22.90;57.40
65087;DHT22;52094;51.234;-2.310;2022-09-06T13:55:47;22.90;56.80
65087;DHT22;52094;51.234;-2.310;2022-09-06T13:59:29;22.80;58.30
65087;DHT22;52094;51.234;-2.310;2022-09-06T14:03:22;22.70;58.60
65087;DHT22;52094;51.234;-2.310;2022-09-06T14:07:05;22.70;58.30
65087;DHT22;52094;51.234;-2.310;2022-09-06T14:10:48;22.80;59.40
65087;DHT22;52094;51.234;-2.310;2022-09-06T14:14:31;23.00;59.60
65087;DHT22;52094;51.234;-2.310;2022-09-06T14:18:14;23.10;58.50
65087;DHT22;52094;51.234;-2.310;2022-09-06T14:21:57;23.10;58.20
65087;DHT22;52094;51.234;-2.310;2022-09-06T14:25:39;23.10;58.20
65087;DHT22;52094;51.234;-2.310;2022-09-06T14:29:21;23.10;58.10
65087;DHT22;52094;51.234;-2.310;2022-09-06T14:33:03;23.10;57.90
65087;DHT22;52094;51.234;-2.310;2022-09-06T14:36:45;23.00;57.70
65087;DHT22;52094;51.234;-2.310;2022-09-06T14:40:28;22.90;56.80
65087;DHT22;52094;51.234;-2.310;2022-09-06T14:44:10;22.70;57.90
65087;DHT22;52094;51.234;-2.310;2022-09-06T14:48:10;22.60;57.40
65087;DHT22;52094;51.234;-2.310;2022-09-06T14:51:52;22.60;56.90
65087;DHT22;52094;51.234;-2.310;2022-09-06T14:55:34;22.60;55.20
65087;DHT22;52094;51.234;-2.310;2022-09-06T14:59:19;22.40;58.30
65087;DHT22;52094;51.234;-2.310;2022-09-06T15:03:01;22.30;58.40
65087;DHT22;52094;51.234;-2.310;2022-09-06T15:06:43;22.30;58.50
65087;DHT22;52094;51.234;-2.310;2022-09-06T15:10:27;22.10;57.90
65087;DHT22;52094;51.234;-2.310;2022-09-06T15:14:16;21.80;57.90
65087;DHT22;52094;51.234;-2.310;2022-09-06T15:17:59;21.30;59.20
65087;DHT22;52094;51.234;-2.310;2022-09-06T15:21:42;20.60;60.00
65087;DHT22;52094;51.234;-2.310;2022-09-06T15:25:24;19.70;61.20
65087;DHT22;52094;51.234;-2.310;2022-09-06T15:29:09;19.20;63.50
65087;DHT22;52094;51.234;-2.310;2022-09-06T15:32:55;19.20;65.20
65087;DHT22;52094;51.234;-2.310;2022-09-06T15:36:37;19.10;66.20
65087;DHT22;52094;51.234;-2.310;2022-09-06T15:40:19;19.20;66.50
65087;DHT22;52094;51.234;-2.310;2022-09-06T15:44:10;19.30;66.00
65087;DHT22;52094;51.234;-2.310;2022-09-06T15:47:53;19.30;68.00
65087;DHT22;52094;51.234;-2.310;2022-09-06T15:51:37;19.30;66.50
65087;DHT22;52094;51.234;-2.310;2022-09-06T15:55:20;19.40;67.00
65087;DHT22;52094;51.234;-2.310;2022-09-06T15:59:22;19.50;67.30
65087;DHT22;52094;51.234;-2.310;2022-09-06T16:03:04;19.60;66.90
65087;DHT22;52094;51.234;-2.310;2022-09-06T16:06:47;19.70;67.50
65087;DHT22;52094;51.234;-2.310;2022-09-06T16:10:29;19.80;67.40
65087;DHT22;52094;51.234;-2.310;2022-09-06T16:14:13;19.90;67.40
65087;DHT22;52094;51.234;-2.310;2022-09-06T16:17:56;20.10;67.60
65087;DHT22;52094;51.234;-2.310;2022-09-06T16:21:40;20.20;67.20
65087;DHT22;52094;51.234;-2.310;2022-09-06T16:25:23;20.20;67.20
65087;DHT22;52094;51.234;-2.310;2022-09-06T16:29:06;20.20;66.90
65087;DHT22;52094;51.234;-2.310;2022-09-06T16:32:50;20.20;67.10
65087;DHT22;52094;51.234;-2.310;2022-09-06T16:36:32;20.20;67.00
65087;DHT22;52094;51.234;-2.310;2022-09-06T16:40:14;20.00;67.30
65087;DHT22;52094;51.234;-2.310;2022-09-06T16:43:56;19.90;67.50
65087;DHT22;52094;51.234;-2.310;2022-09-06T16:47:39;19.90;67.60
65087;DHT22;52094;51.234;-2.310;2022-09-06T16:51:23;19.70;67.80
65087;DHT22;52094;51.234;-2.310;2022-09-06T16:55:06;19.70;68.00
65087;DHT22;52094;51.234;-2.310;2022-09-06T16:58:55;19.70;68.00
65087;DHT22;52094;51.234;-2.310;2022-09-06T17:02:38;19.60;68.30
65087;DHT22;52094;51.234;-2.310;2022-09-06T17:06:27;19.50;68.40
65087;DHT22;52094;51.234;-2.310;2022-09-06T17:10:10;19.40;68.30
65087;DHT22;52094;51.234;-2.310;2022-09-06T17:13:53;19.20;68.60
65087;DHT22;52094;51.234;-2.310;2022-09-06T17:17:36;19.20;69.00
65087;DHT22;52094;51.234;-2.310;2022-09-06T17:21:22;18.70;67.80
65087;DHT22;52094;51.234;-2.310;2022-09-06T17:25:05;17.80;70.20
65087;DHT22;52094;51.234;-2.310;2022-09-06T17:28:48;17.20;71.10
65087;DHT22;52094;51.234;-2.310;2022-09-06T17:32:30;16.80;72.60
65087;DHT22;52094;51.234;-2.310;2022-09-06T17:36:18;16.70;73.50
65087;DHT22;52094;51.234;-2.310;2022-09-06T17:44:58;16.60;78.40
65087;DHT22;52094;51.234;-2.310;2022-09-06T17:48:40;16.80;76.10
65087;DHT22;52094;51.234;-2.310;2022-09-06T17:52:23;16.90;76.00
65087;DHT22;52094;51.234;-2.310;2022-09-06T17:56:07;16.90;75.90
65087;DHT22;52094;51.234;-2.310;2022-09-06T17:59:50;17.00;76.10
65087;DHT22;52094;51.234;-2.310;2022-09-06T18:03:32;17.00;76.30
65087;DHT22;52094;51.234;-2.310;2022-09-06T18:07:15;17.00;76.40
65087;DHT22;52094;51.234;-2.310;2022-09-06T18:10:58;17.00;76.80
65087;DHT22;52094;51.234;-2.310;2022-09-06T18:14:40;16.90;76.80
65087;DHT22;52094;51.234;-2.310;2022-09-06T18:18:22;16.90;77.10
65087;DHT22;52094;51.234;-2.310;2022-09-06T18:22:04;16.80;77.70
65087;DHT22;52094;51.234;-2.310;2022-09-06T18:26:00;16.70;77.50
65087;DHT22;52094;51.234;-2.310;2022-09-06T18:29:43;16.70;80.20
65087;DHT22;52094;51.234;-2.310;2022-09-06T18:33:26;16.70;78.50
65087;DHT22;52094;51.234;-2.310;2022-09-06T18:37:08;16.70;78.80
65087;DHT22;52094;51.234;-2.310;2022-09-06T18:40:52;16.70;79.00
65087;DHT22;52094;51.234;-2.310;2022-09-06T18:44:34;16.70;79.20
65087;DHT22;52094;51.234;-2.310;2022-09-06T18:48:17;16.50;79.20
65087;DHT22;52094;51.234;-2.310;2022-09-06T18:52:03;16.20;78.80
65087;DHT22;52094;51.234;-2.310;2022-09-06T18:55:50;16.10;79.50
65087;DHT22;52094;51.234;-2.310;2022-09-06T18:59:32;16.00;80.20
65087;DHT22;52094;51.234;-2.310;2022-09-06T19:03:14;16.00;80.00
65087;DHT22;52094;51.234;-2.310;2022-09-06T19:06:56;15.90;80.20
65087;DHT22;52094;51.234;-2.310;2022-09-06T19:10:38;15.90;79.90
65087;DHT22;52094;51.234;-2.310;2022-09-06T19:14:20;15.90;80.10
65087;DHT22;52094;51.234;-2.310;2022-09-06T19:18:02;15.80;79.70
65087;DHT22;52094;51.234;-2.310;2022-09-06T19:21:44;15.70;79.90
65087;DHT22;52094;51.234;-2.310;2022-09-06T19:25:26;15.60;80.00
65087;DHT22;52094;51.234;-2.310;2022-09-06T19:29:14;15.50;80.10
65087;DHT22;52094;51.234;-2.310;2022-09-06T19:32:58;15.40;80.70
65087;DHT22;52094;51.234;-2.310;2022-09-06T19:36:40;15.40;80.50
65087;DHT22;52094;51.234;-2.310;2022-09-06T19:40:22;15.30;80.70
65087;DHT22;52094;51.234;-2.310;2022-09-06T19:44:05;15.30;80.80
65087;DHT22;52094;51.234;-2.310;2022-09-06T19:47:49;15.20;80.80
65087;DHT22;52094;51.234;-2.310;2022-09-06T19:51:31;15.20;81.20
65087;DHT22;52094;51.234;-2.310;2022-09-06T19:55:13;15.20;81.10
65087;DHT22;52094;51.234;-2.310;2022-09-06T19:59:07;15.20;81.30
65087;DHT22;52094;51.234;-2.310;2022-09-06T20:02:49;15.10;82.50
65087;DHT22;52094;51.234;-2.310;2022-09-06T20:06:32;15.10;81.50
65087;DHT22;52094;51.234;-2.310;2022-09-06T20:10:16;15.00;81.30
65087;DHT22;52094;51.234;-2.310;2022-09-06T20:13:59;15.00;81.30
65087;DHT22;52094;51.234;-2.310;2022-09-06T20:17:41;14.90;81.40
65087;DHT22;52094;51.234;-2.310;2022-09-06T20:21:26;14.80;81.40
65087;DHT22;52094;51.234;-2.310;2022-09-06T20:25:09;14.80;81.70
65087;DHT22;52094;51.234;-2.310;2022-09-06T20:28:54;14.80;81.60
65087;DHT22;52094;51.234;-2.310;2022-09-06T20:32:36;14.70;81.80
65087;DHT22;52094;51.234;-2.310;2022-09-06T20:36:18;14.70;82.00
65087;DHT22;52094;51.234;-2.310;2022-09-06T20:40:01;14.70;82.00
65087;DHT22;52094;51.234;-2.310;2022-09-06T20:43:44;14.70;81.90
65087;DHT22;52094;51.234;-2.310;2022-09-06T20:47:27;14.70;82.00
65087;DHT22;52094;51.234;-2.310;2022-09-06T20:51:12;14.70;81.90
65087;DHT22;52094;51.234;-2.310;2022-09-06T20:54:56;14.70;82.00
65087;DHT22;52094;51.234;-2.310;2022-09-06T20:58:41;14.70;82.00
65087;DHT22;52094;51.234;-2.310;2022-09-06T21:02:30;14.70;82.20
65087;DHT22;52094;51.234;-2.310;2022-09-06T21:06:13;14.70;82.20
65087;DHT22;52094;51.234;-2.310;2022-09-06T21:09:56;14.70;82.20
65087;DHT22;52094;51.234;-2.310;2022-09-06T21:13:42;14.80;82.30
65087;DHT22;52094;51.234;-2.310;2022-09-06T21:17:24;14.90;82.40
65087;DHT22;52094;51.234;-2.310;2022-09-06T21:21:07;14.90;82.60
65087;DHT22;52094;51.234;-2.310;2022-09-06T21:24:49;15.00;82.90
65087;DHT22;52094;51.234;-2.310;2022-09-06T21:28:35;15.10;82.90
65087;DHT22;52094;51.234;-2.310;2022-09-06T21:32:18;15.20;83.00
65087;DHT22;52094;51.234;-2.310;2022-09-06T21:36:04;15.20;82.80
65087;DHT22;52094;51.234;-2.310;2022-09-06T21:39:47;15.30;83.00
65087;DHT22;52094;51.234;-2.310;2022-09-06T21:43:30;15.40;83.10
65087;DHT22;52094;51.234;-2.310;2022-09-06T21:47:12;15.40;83.10
65087;DHT22;52094;51.234;-2.310;2022-09-06T21:50:55;15.50;83.20
65087;DHT22;52094;51.234;-2.310;2022-09-06T21:54:38;15.60;83.20
65087;DHT22;52094;51.234;-2.310;2022-09-06T21:58:20;15.60;83.00
65087;DHT22;52094;51.234;-2.310;2022-09-06T22:02:02;15.60;82.90
65087;DHT22;52094;51.234;-2.310;2022-09-06T22:05:44;15.60;82.90
65087;DHT22;52094;51.234;-2.310;2022-09-06T22:09:26;15.60;82.90
65087;DHT22;52094;51.234;-2.310;2022-09-06T22:13:09;15.70;82.90
65087;DHT22;52094;51.234;-2.310;2022-09-06T22:16:51;15.70;82.80
65087;DHT22;52094;51.234;-2.310;2022-09-06T22:20:34;15.70;82.90
65087;DHT22;52094;51.234;-2.310;2022-09-06T22:24:17;15.60;82.90
65087;DHT22;52094;51.234;-2.310;2022-09-06T22:27:59;15.60;83.10
65087;DHT22;52094;51.234;-2.310;2022-09-06T22:31:42;15.70;83.30
65087;DHT22;52094;51.234;-2.310;2022-09-06T22:35:24;15.70;83.30
65087;DHT22;52094;51.234;-2.310;2022-09-06T22:39:06;15.70;83.10
65087;DHT22;52094;51.234;-2.310;2022-09-06T22:42:50;15.80;83.00
65087;DHT22;52094;51.234;-2.310;2022-09-06T22:46:32;15.70;82.80
65087;DHT22;52094;51.234;-2.310;2022-09-06T22:50:14;15.70;83.00
65087;DHT22;52094;51.234;-2.310;2022-09-06T22:53:56;15.80;83.00
65087;DHT22;52094;51.234;-2.310;2022-09-06T22:57:39;15.80;82.90
65087;DHT22;52094;51.234;-2.310;2022-09-06T23:01:21;15.80;82.90
65087;DHT22;52094;51.234;-2.310;2022-09-06T23:05:03;15.70;82.90
65087;DHT22;52094;51.234;-2.310;2022-09-06T23:08:46;15.80;82.90
65087;DHT22;52094;51.234;-2.310;2022-09-06T23:12:28;15.80;83.10
65087;DHT22;52094;51.234;-2.310;2022-09-06T23:16:12;15.80;83.20
65087;DHT22;52094;51.234;-2.310;2022-09-06T23:19:55;15.70;83.10
65087;DHT22;52094;51.234;-2.310;2022-09-06T23:23:37;15.70;83.10
65087;DHT22;52094;51.234;-2.310;2022-09-06T23:27:19;15.70;83.00
65087;DHT22;52094;51.234;-2.310;2022-09-06T23:31:06;15.70;83.10
65087;DHT22;52094;51.234;-2.310;2022-09-06T23:34:49;15.70;83.30
65087;DHT22;52094;51.234;-2.310;2022-09-06T23:38:32;15.70;83.10
65087;DHT22;52094;51.234;-2.310;2022-09-06T23:42:14;15.70;83.20
65087;DHT22;52094;51.234;-2.310;2022-09-06T23:45:56;15.70;83.20
65087;DHT22;52094;51.234;-2.310;2022-09-06T23:49:39;15.60;83.20
65087;DHT22;52094;51.234;-2.310;2022-09-06T23:53:21;15.60;83.50
65087;DHT22;52094;51.234;-2.310;2022-09-06T23:57:03;15.60;83.60
